sensor_id;sensor_type;location;lat;lon;timestamp;pressure;altitude;pressure_sealevel;temperature;humidity
25156;BME280;21913;52.456;13.634;2022-08-03T00:04:33;100321.22;;;20.66;79.51
25156;BME280;21913;52.456;13.634;2022-08-03T00:09:34;100313.34;;;20.66;79.69
25156;BME280;21913;52.456;13.634;2022-08-03T00:14:36;100316.88;;;20.65;79.43
25156;BME280;21913;52.456;13.634;2022-08-03T00:19:37;100313.34;;;20.66;79.77
25156;BME280;21913;52.456;13.634;2022-08-03T00:24:39;100307.19;;;20.67;79.52
25156;BME280;21913;52.456;13.634;2022-08-03T00:29:40;100308.06;;;20.66;79.43
25156;BME280;21913;52.456;13.634;2022-08-03T00:34:41;100303.69;;;20.66;79.45
25156;BME280;21913;52.456;13.634;2022-08-03T00:39:43;100292.31;;;20.66;79.48
25156;BME280;21913;52.456;13.634;2022-08-03T00:44:44;100287.03;;;20.66;79.75
25156;BME280;21913;52.456;13.634;2022-08-03T00:49:46;100280.06;;;20.65;79.51
25156;BME280;21913;52.456;13.634;2022-08-03T00:54:47;100286.19;;;20.65;79.86
25156;BME280;21913;52.456;13.634;2022-08-03T00:59:49;100275.69;;;20.65;79.89
25156;BME280;21913;52.456;13.634;2022-08-03T01:04:50;100284.41;;;20.66;79.51
25156;BME280;21913;52.456;13.634;2022-08-03T01:20:23;100273.03;;;20.65;79.49
25156;BME280;21913;52.456;13.634;2022-08-03T01:30:46;100273.91;;;20.66;79.80
25156;BME280;21913;52.456;13.634;2022-08-03T01:35:53;100267.78;;;20.65;79.86
25156;BME280;21913;52.456;13.634;2022-08-03T01:41:00;100262.59;;;20.64;79.76
25156;BME280;21913;52.456;13.634;2022-08-03T01:46:04;100264.31;;;20.65;79.51
25156;BME280;21913;52.456;13.634;2022-08-03T01:51:07;100265.16;;;20.65;79.57
25156;BME280;21913;52.456;13.634;2022-08-03T01:56:09;100256.41;;;20.65;79.50
25156;BME280;21913;52.456;13.634;2022-08-03T02:01:11;100256.41;;;20.65;79.73
25156;BME280;21913;52.456;13.634;2022-08-03T02:06:13;100254.66;;;20.65;79.91
25156;BME280;21913;52.456;13.634;2022-08-03T02:11:25;100256.41;;;20.65;79.61
25156;BME280;21913;52.456;13.634;2022-08-03T02:16:27;100252.88;;;20.66;79.58
25156;BME280;21913;52.456;13.634;2022-08-03T02:21:31;100256.41;;;20.65;79.64
25156;BME280;21913;52.456;13.634;2022-08-03T02:26:33;100256.41;;;20.65;79.96
25156;BME280;21913;52.456;13.634;2022-08-03T02:31:36;100256.41;;;20.65;79.62
25156;BME280;21913;52.456;13.634;2022-08-03T02:36:38;100255.56;;;20.64;79.57
25156;BME280;21913;52.456;13.634;2022-08-03T02:41:41;100257.28;;;20.65;79.78
25156;BME280;21913;52.456;13.634;2022-08-03T02:46:44;100261.69;;;20.65;79.58
25156;BME280;21913;52.456;13.634;2022-08-03T02:51:46;100252.94;;;20.64;79.68
25156;BME280;21913;52.456;13.634;2022-08-03T02:56:49;100255.56;;;20.64;79.63
25156;BME280;21913;52.456;13.634;2022-08-03T03:01:52;100259.91;;;20.65;79.73
25156;BME280;21913;52.456;13.634;2022-08-03T03:06:54;100245.91;;;20.65;79.70
25156;BME280;21913;52.456;13.634;2022-08-03T03:11:56;100254.66;;;20.65;79.75
25156;BME280;21913;52.456;13.634;2022-08-03T03:16:57;100247.69;;;20.64;79.87
25156;BME280;21913;52.456;13.634;2022-08-03T03:22:00;100247.69;;;20.64;79.71
25156;BME280;21913;52.456;13.634;2022-08-03T03:27:02;100252.94;;;20.64;79.78
25156;BME280;21913;52.456;13.634;2022-08-03T03:32:04;100249.47;;;20.64;79.95
25156;BME280;21913;52.456;13.634;2022-08-03T03:37:05;100255.56;;;20.64;79.52
25156;BME280;21913;52.456;13.634;2022-08-03T03:42:07;100248.53;;;20.65;79.54
25156;BME280;21913;52.456;13.634;2022-08-03T03:47:08;100242.41;;;20.64;79.88
25156;BME280;21913;52.456;13.634;2022-08-03T03:52:10;100244.19;;;20.64;79.58
25156;BME280;21913;52.456;13.634;2022-08-03T03:57:11;100249.47;;;20.64;79.46
25156;BME280;21913;52.456;13.634;2022-08-03T04:02:13;100252.94;;;20.64;79.83
25156;BME280;21913;52.456;13.634;2022-08-03T04:07:14;100254.72;;;20.64;79.76
25156;BME280;21913;52.456;13.634;2022-08-03T04:12:16;100257.41;;;20.62;79.51
25156;BME280;21913;52.456;13.634;2022-08-03T04:17:18;100255.63;;;20.63;79.57
25156;BME280;21913;52.456;13.634;2022-08-03T04:22:21;100248.59;;;20.63;79.44
25156;BME280;21913;52.456;13.634;2022-08-03T04:27:24;100253.00;;;20.63;79.59
25156;BME280;21913;52.456;13.634;2022-08-03T04:32:27;100263.53;;;20.63;79.44
25156;BME280;21913;52.456;13.634;2022-08-03T04:37:40;100260.88;;;20.63;79.49
25156;BME280;21913;52.456;13.634;2022-08-03T04:42:42;100265.22;;;20.64;79.50
25156;BME280;21913;52.456;13.634;2022-08-03T04:47:44;100259.13;;;20.63;79.64
25156;BME280;21913;52.456;13.634;2022-08-03T04:52:46;100263.53;;;20.63;79.49
25156;BME280;21913;52.456;13.634;2022-08-03T04:57:48;100267.94;;;20.62;79.54
25156;BME280;21913;52.456;13.634;2022-08-03T05:02:49;100267.84;;;20.64;79.46
25156;BME280;21913;52.456;13.634;2022-08-03T05:07:51;100260.88;;;20.63;79.78
25156;BME280;21913;52.456;13.634;2022-08-03T05:12:52;100269.63;;;20.63;79.79
25156;BME280;21913;52.456;13.634;2022-08-03T05:17:54;100276.66;;;20.63;79.89
25156;BME280;21913;52.456;13.634;2022-08-03T05:22:55;100271.41;;;20.63;79.88
25156;BME280;21913;52.456;13.634;2022-08-03T05:27:57;100270.47;;;20.64;79.91
25156;BME280;21913;52.456;13.634;2022-08-03T05:32:58;100272.25;;;20.63;79.59
25156;BME280;21913;52.456;13.634;2022-08-03T05:38:01;100272.25;;;20.63;79.59
25156;BME280;21913;52.456;13.634;2022-08-03T05:43:02;100277.50;;;20.63;79.91
25156;BME280;21913;52.456;13.634;2022-08-03T05:48:04;100273.13;;;20.64;79.61
25156;BME280;21913;52.456;13.634;2022-08-03T05:53:05;100277.50;;;20.63;79.67
25156;BME280;21913;52.456;13.634;2022-08-03T05:58:07;100280.16;;;20.63;79.67
25156;BME280;21913;52.456;13.634;2022-08-03T06:03:08;100286.25;;;20.64;79.96
25156;BME280;21913;52.456;13.634;2022-08-03T06:08:10;100287.19;;;20.63;79.66
25156;BME280;21913;52.456;13.634;2022-08-03T06:13:11;100291.50;;;20.64;79.96
25156;BME280;21913;52.456;13.634;2022-08-03T06:18:13;100287.19;;;20.63;79.57
25156;BME280;21913;52.456;13.634;2022-08-03T06:23:14;100289.81;;;20.63;79.96
25156;BME280;21913;52.456;13.634;2022-08-03T06:28:15;100279.28;;;20.63;80.03
25156;BME280;21913;52.456;13.634;2022-08-03T06:33:35;100282.78;;;20.63;79.57
25156;BME280;21913;52.456;13.634;2022-08-03T06:38:37;100281.84;;;20.64;79.12
25156;BME280;21913;52.456;13.634;2022-08-03T06:43:38;100279.34;;;20.61;77.12
25156;BME280;21913;52.456;13.634;2022-08-03T06:48:40;100284.56;;;20.63;75.98
25156;BME280;21913;52.456;13.634;2022-08-03T06:53:41;100283.69;;;20.62;75.66
25156;BME280;21913;52.456;13.634;2022-08-03T06:58:42;100288.09;;;20.62;76.31
25156;BME280;21913;52.456;13.634;2022-08-03T07:03:44;100289.91;;;20.60;76.80
25156;BME280;21913;52.456;13.634;2022-08-03T07:08:45;100289.97;;;20.58;77.42
25156;BME280;21913;52.456;13.634;2022-08-03T07:13:48;100288.25;;;20.57;77.54
25156;BME280;21913;52.456;13.634;2022-08-03T07:18:50;100293.53;;;20.57;77.81
25156;BME280;21913;52.456;13.634;2022-08-03T07:23:51;100298.78;;;20.57;77.94
25156;BME280;21913;52.456;13.634;2022-08-03T07:28:52;100306.59;;;20.59;77.85
25156;BME280;21913;52.456;13.634;2022-08-03T07:33:54;100305.66;;;20.61;77.74
25156;BME280;21913;52.456;13.634;2022-08-03T07:38:55;100302.94;;;20.63;77.80
25156;BME280;21913;52.456;13.634;2022-08-03T07:43:57;100303.69;;;20.66;78.07
25156;BME280;21913;52.456;13.634;2022-08-03T07:48:58;100315.78;;;20.70;77.83
25156;BME280;21913;52.456;13.634;2022-08-03T07:53:59;100313.13;;;20.72;77.83
25156;BME280;21913;52.456;13.634;2022-08-03T07:59:01;100301.53;;;20.78;77.90
25156;BME280;21913;52.456;13.634;2022-08-03T08:04:03;100308.16;;;20.88;76.53
25156;BME280;21913;52.456;13.634;2022-08-03T08:09:05;100303.78;;;20.87;76.52
25156;BME280;21913;52.456;13.634;2022-08-03T08:14:06;100300.38;;;20.85;76.96
25156;BME280;21913;52.456;13.634;2022-08-03T08:19:07;100296.03;;;20.84;77.12
25156;BME280;21913;52.456;13.634;2022-08-03T08:24:09;100303.09;;;20.82;77.29
25156;BME280;21913;52.456;13.634;2022-08-03T08:29:11;100306.66;;;20.81;77.51
25156;BME280;21913;52.456;13.634;2022-08-03T08:34:12;100305.81;;;20.80;77.58
25156;BME280;21913;52.456;13.634;2022-08-03T08:39:14;100297.97;;;20.79;77.92
25156;BME280;21913;52.456;13.634;2022-08-03T08:44:15;100303.25;;;20.79;77.69
25156;BME280;21913;52.456;13.634;2022-08-03T08:49:17;100304.94;;;20.80;77.76
25156;BME280;21913;52.456;13.634;2022-08-03T08:54:22;100306.72;;;20.79;78.00
25156;BME280;21913;52.456;13.634;2022-08-03T08:59:24;100304.94;;;20.80;77.84
25156;BME280;21913;52.456;13.634;2022-08-03T09:04:26;100304.94;;;20.80;77.91
25156;BME280;21913;52.456;13.634;2022-08-03T09:09:28;100295.28;;;20.80;78.17
25156;BME280;21913;52.456;13.634;2022-08-03T09:14:30;100291.78;;;20.80;78.12
25156;BME280;21913;52.456;13.634;2022-08-03T09:19:33;100301.41;;;20.81;78.19
25156;BME280;21913;52.456;13.634;2022-08-03T09:24:35;100296.13;;;20.81;78.21
25156;BME280;21913;52.456;13.634;2022-08-03T09:29:41;100288.25;;;20.81;77.98
25156;BME280;21913;52.456;13.634;2022-08-03T09:34:48;100291.72;;;20.81;77.99
25156;BME280;21913;52.456;13.634;2022-08-03T09:39:49;100290.88;;;20.81;78.13
25156;BME280;21913;52.456;13.634;2022-08-03T09:44:51;100291.78;;;20.80;78.29
25156;BME280;21913;52.456;13.634;2022-08-03T09:49:59;100283.66;;;21.31;71.20
25156;BME280;21913;52.456;13.634;2022-08-03T09:55:02;100282.63;;;21.35;72.33
25156;BME280;21913;52.456;13.634;2022-08-03T10:05:12;100278.25;;;21.12;74.28
25156;BME280;21913;52.456;13.634;2022-08-03T10:10:16;100284.69;;;21.05;74.77
25156;BME280;21913;52.456;13.634;2022-08-03T10:15:18;100282.28;;;20.99;75.47
25156;BME280;21913;52.456;13.634;2022-08-03T10:20:19;100284.19;;;20.95;75.57
25156;BME280;21913;52.456;13.634;2022-08-03T10:25:21;100280.75;;;20.93;76.09
25156;BME280;21913;52.456;13.634;2022-08-03T10:30:22;100278.25;;;20.90;76.42
25156;BME280;21913;52.456;13.634;2022-08-03T10:35:24;100266.94;;;20.88;76.62
25156;BME280;21913;52.456;13.634;2022-08-03T10:40:27;100268.75;;;20.86;76.66
25156;BME280;21913;52.456;13.634;2022-08-03T10:45:49;100266.13;;;20.86;76.63
25156;BME280;21913;52.456;13.634;2022-08-03T10:50:51;100258.38;;;21.27;68.59
25156;BME280;21913;52.456;13.634;2022-08-03T10:55:53;100250.59;;;21.46;68.96
25156;BME280;21913;52.456;13.634;2022-08-03T11:00:54;100249.41;;;21.33;70.96
25156;BME280;21913;52.456;13.634;2022-08-03T11:06:15;100241.16;;;21.18;72.00
25156;BME280;21913;52.456;13.634;2022-08-03T11:16:19;100232.31;;;20.99;73.70
25156;BME280;21913;52.456;13.634;2022-08-03T11:22:08;100242.16;;;20.94;74.45
25156;BME280;21913;52.456;13.634;2022-08-03T11:26:44;100246.69;;;20.90;74.79
25156;BME280;21913;52.456;13.634;2022-08-03T11:32:06;100239.78;;;20.88;74.90
25156;BME280;21913;52.456;13.634;2022-08-03T11:37:17;100234.56;;;20.86;75.43
25156;BME280;21913;52.456;13.634;2022-08-03T11:47:24;100237.31;;;20.83;75.51
25156;BME280;21913;52.456;13.634;2022-08-03T11:52:25;100240.84;;;20.82;75.96
25156;BME280;21913;52.456;13.634;2022-08-03T12:02:30;100238.28;;;20.81;76.01
25156;BME280;21913;52.456;13.634;2022-08-03T12:07:31;100247.03;;;20.81;76.07
25156;BME280;21913;52.456;13.634;2022-08-03T12:12:33;100242.69;;;20.80;76.41
25156;BME280;21913;52.456;13.634;2022-08-03T12:22:37;100239.22;;;20.80;76.41
25156;BME280;21913;52.456;13.634;2022-08-03T12:27:39;100235.72;;;20.79;76.85
25156;BME280;21913;52.456;13.634;2022-08-03T12:32:41;100227.84;;;20.79;76.83
25156;BME280;21913;52.456;13.634;2022-08-03T12:37:46;100229.63;;;20.79;76.96
25156;BME280;21913;52.456;13.634;2022-08-03T12:42:48;100219.94;;;20.79;77.10
25156;BME280;21913;52.456;13.634;2022-08-03T12:47:50;100221.72;;;20.79;76.82
25156;BME280;21913;52.456;13.634;2022-08-03T12:52:52;100225.22;;;20.79;77.19
25156;BME280;21913;52.456;13.634;2022-08-03T12:57:54;100214.69;;;20.79;76.96
25156;BME280;21913;52.456;13.634;2022-08-03T13:02:59;100205.94;;;20.79;77.26
25156;BME280;21913;52.456;13.634;2022-08-03T13:08:18;100207.72;;;20.78;76.96
25156;BME280;21913;52.456;13.634;2022-08-03T13:13:36;100216.47;;;20.79;77.01
25156;BME280;21913;52.456;13.634;2022-08-03T13:18:38;100208.56;;;20.79;77.33
25156;BME280;21913;52.456;13.634;2022-08-03T13:23:39;100202.47;;;20.78;77.15
25156;BME280;21913;52.456;13.634;2022-08-03T13:28:41;100215.59;;;20.78;77.12
25156;BME280;21913;52.456;13.634;2022-08-03T13:33:42;100200.31;;;21.10;70.77
25156;BME280;21913;52.456;13.634;2022-08-03T13:38:44;100192.50;;;21.28;70.93
25156;BME280;21913;52.456;13.634;2022-08-03T13:43:45;100199.81;;;21.22;71.92
25156;BME280;21913;52.456;13.634;2022-08-03T13:48:46;100192.44;;;21.10;73.10
25156;BME280;21913;52.456;13.634;2022-08-03T13:53:49;100190.16;;;21.00;74.17
25156;BME280;21913;52.456;13.634;2022-08-03T13:58:50;100191.34;;;20.93;74.57
25156;BME280;21913;52.456;13.634;2022-08-03T14:03:52;100187.03;;;20.91;75.10
25156;BME280;21913;52.456;13.634;2022-08-03T14:08:53;100177.53;;;20.88;75.44
25156;BME280;21913;52.456;13.634;2022-08-03T14:13:57;100173.22;;;20.86;75.28
25156;BME280;21913;52.456;13.634;2022-08-03T14:18:58;100175.00;;;20.85;75.75
25156;BME280;21913;52.456;13.634;2022-08-03T14:24:00;100174.22;;;20.83;75.57
25156;BME280;21913;52.456;13.634;2022-08-03T14:29:01;100170.72;;;20.83;75.81
25156;BME280;21913;52.456;13.634;2022-08-03T14:34:02;100169.81;;;20.84;76.00
25156;BME280;21913;52.456;13.634;2022-08-03T14:39:04;100164.59;;;20.82;76.29
25156;BME280;21913;52.456;13.634;2022-08-03T14:44:05;100165.50;;;20.81;76.24
25156;BME280;21913;52.456;13.634;2022-08-03T14:49:07;100167.22;;;20.82;76.16
25156;BME280;21913;52.456;13.634;2022-08-03T14:54:08;100147.09;;;20.81;76.40
25156;BME280;21913;52.456;13.634;2022-08-03T14:59:10;100146.25;;;20.81;76.28
25156;BME280;21913;52.456;13.634;2022-08-03T15:04:11;100159.41;;;20.81;76.33
25156;BME280;21913;52.456;13.634;2022-08-03T15:09:12;100144.47;;;20.81;76.39
25156;BME280;21913;52.456;13.634;2022-08-03T15:14:23;100146.25;;;20.81;76.67
25156;BME280;21913;52.456;13.634;2022-08-03T15:19:24;100146.19;;;20.82;76.48
25156;BME280;21913;52.456;13.634;2022-08-03T15:24:26;100140.06;;;20.82;76.53
25156;BME280;21913;52.456;13.634;2022-08-03T15:29:27;100139.22;;;20.81;76.82
25156;BME280;21913;52.456;13.634;2022-08-03T15:34:29;100134.81;;;20.82;76.70
25156;BME280;21913;52.456;13.634;2022-08-03T15:39:30;100128.69;;;20.81;76.93
25156;BME280;21913;52.456;13.634;2022-08-03T15:44:32;100131.28;;;20.83;76.73
25156;BME280;21913;52.456;13.634;2022-08-03T15:49:33;100125.16;;;20.82;76.79
25156;BME280;21913;52.456;13.634;2022-08-03T15:54:34;100133.03;;;20.82;76.78
25156;BME280;21913;52.456;13.634;2022-08-03T15:59:36;100128.66;;;20.83;77.10
25156;BME280;21913;52.456;13.634;2022-08-03T16:04:37;100126.03;;;20.83;76.78
25156;BME280;21913;52.456;13.634;2022-08-03T16:09:39;100120.78;;;20.83;77.10
25156;BME280;21913;52.456;13.634;2022-08-03T16:14:40;100126.03;;;20.83;77.14
25156;BME280;21913;52.456;13.634;2022-08-03T16:19:51;100119.88;;;20.82;77.04
25156;BME280;21913;52.456;13.634;2022-08-03T16:24:52;100118.16;;;20.83;77.00
25156;BME280;21913;52.456;13.634;2022-08-03T16:29:54;100111.50;;;21.37;68.09
25156;BME280;21913;52.456;13.634;2022-08-03T16:34:55;100116.63;;;22.37;61.92
25156;BME280;21913;52.456;13.634;2022-08-03T16:39:57;100113.91;;;22.57;61.98
25156;BME280;21913;52.456;13.634;2022-08-03T16:44:58;100112.16;;;22.20;64.52
25156;BME280;21913;52.456;13.634;2022-08-03T16:50:00;100108.53;;;21.84;66.59
25156;BME280;21913;52.456;13.634;2022-08-03T16:55:02;100113.34;;;21.55;68.36
25156;BME280;21913;52.456;13.634;2022-08-03T17:00:03;100105.53;;;22.30;65.73
25156;BME280;21913;52.456;13.634;2022-08-03T17:05:05;100116.75;;;23.41;61.87
25156;BME280;21913;52.456;13.634;2022-08-03T17:10:07;100111.84;;;24.01;61.09
25156;BME280;21913;52.456;13.634;2022-08-03T17:15:08;100108.22;;;24.35;60.88
25156;BME280;21913;52.456;13.634;2022-08-03T17:20:11;100111.69;;;24.52;61.11
25156;BME280;21913;52.456;13.634;2022-08-03T17:25:14;100100.50;;;24.62;61.05
25156;BME280;21913;52.456;13.634;2022-08-03T17:30:17;100113.56;;;24.65;61.49
25156;BME280;21913;52.456;13.634;2022-08-03T17:35:19;100113.47;;;24.67;61.59
25156;BME280;21913;52.456;13.634;2022-08-03T17:40:21;100103.84;;;24.66;62.12
25156;BME280;21913;52.456;13.634;2022-08-03T17:45:22;100104.88;;;24.63;62.40
25156;BME280;21913;52.456;13.634;2022-08-03T17:50:26;100109.59;;;24.58;62.52
25156;BME280;21913;52.456;13.634;2022-08-03T17:55:32;100114.28;;;24.53;63.02
25156;BME280;21913;52.456;13.634;2022-08-03T18:00:33;100119.13;;;24.45;63.49
25156;BME280;21913;52.456;13.634;2022-08-03T18:05:38;100126.41;;;24.42;63.72
25156;BME280;21913;52.456;13.634;2022-08-03T18:10:41;100123.22;;;24.35;64.03
25156;BME280;21913;52.456;13.634;2022-08-03T18:15:58;100119.03;;;24.31;64.20
25156;BME280;21913;52.456;13.634;2022-08-03T18:21:01;100114.06;;;24.25;64.44
25156;BME280;21913;52.456;13.634;2022-08-03T18:26:05;100116.13;;;24.20;64.75
25156;BME280;21913;52.456;13.634;2022-08-03T18:31:11;100111.94;;;24.16;64.94
25156;BME280;21913;52.456;13.634;2022-08-03T18:36:15;100120.97;;;24.11;65.12
25156;BME280;21913;52.456;13.634;2022-08-03T18:41:18;100115.94;;;24.07;65.34
25156;BME280;21913;52.456;13.634;2022-08-03T18:51:30;100120.84;;;23.97;65.95
25156;BME280;21913;52.456;13.634;2022-08-03T19:01:38;100117.88;;;23.87;66.23
25156;BME280;21913;52.456;13.634;2022-08-03T19:06:44;100120.75;;;23.83;66.33
25156;BME280;21913;52.456;13.634;2022-08-03T19:11:49;100123.56;;;23.80;66.77
25156;BME280;21913;52.456;13.634;2022-08-03T19:16:55;100123.72;;;23.77;66.67
25156;BME280;21913;52.456;13.634;2022-08-03T19:21:57;100133.50;;;23.75;66.18
25156;BME280;21913;52.456;13.634;2022-08-03T19:26:59;100137.28;;;23.71;66.43
25156;BME280;21913;52.456;13.634;2022-08-03T19:32:01;100134.78;;;23.68;66.61
25156;BME280;21913;52.456;13.634;2022-08-03T19:37:02;100150.78;;;23.65;66.87
25156;BME280;21913;52.456;13.634;2022-08-03T19:42:07;100143.94;;;23.60;67.19
25156;BME280;21913;52.456;13.634;2022-08-03T19:47:13;100152.09;;;23.56;67.20
25156;BME280;21913;52.456;13.634;2022-08-03T19:52:14;100158.38;;;23.53;67.54
25156;BME280;21913;52.456;13.634;2022-08-03T19:57:17;100155.91;;;23.50;67.69
25156;BME280;21913;52.456;13.634;2022-08-03T20:02:19;100153.41;;;23.47;67.78
25156;BME280;21913;52.456;13.634;2022-08-03T20:07:21;100151.78;;;23.45;67.85
25156;BME280;21913;52.456;13.634;2022-08-03T20:12:23;100158.06;;;23.42;67.89
25156;BME280;21913;52.456;13.634;2022-08-03T20:17:26;100160.88;;;23.39;68.06
25156;BME280;21913;52.456;13.634;2022-08-03T20:22:30;100159.22;;;23.36;68.18
25156;BME280;21913;52.456;13.634;2022-08-03T20:27:37;100153.28;;;23.33;68.32
25156;BME280;21913;52.456;13.634;2022-08-03T20:32:39;100155.97;;;23.31;68.36
25156;BME280;21913;52.456;13.634;2022-08-03T20:37:40;100154.34;;;23.29;68.55
25156;BME280;21913;52.456;13.634;2022-08-03T20:42:42;100164.13;;;23.27;68.69
25156;BME280;21913;52.456;13.634;2022-08-03T20:47:43;100159.00;;;23.24;68.64
25156;BME280;21913;52.456;13.634;2022-08-03T20:52:45;100162.59;;;23.23;68.84
25156;BME280;21913;52.456;13.634;2022-08-03T20:57:48;100159.16;;;23.21;68.95
25156;BME280;21913;52.456;13.634;2022-08-03T21:02:50;100161.03;;;23.19;69.07
25156;BME280;21913;52.456;13.634;2022-08-03T21:07:53;100154.13;;;23.16;69.14
25156;BME280;21913;52.456;13.634;2022-08-03T21:13:01;100166.53;;;23.14;69.24
25156;BME280;21913;52.456;13.634;2022-08-03T21:18:15;100163.13;;;23.12;69.36
25156;BME280;21913;52.456;13.634;2022-08-03T21:23:18;100161.47;;;23.09;69.45
25156;BME280;21913;52.456;13.634;2022-08-03T21:28:20;100149.22;;;23.08;69.47
25156;BME280;21913;52.456;13.634;2022-08-03T21:33:26;100140.53;;;23.06;69.38
25156;BME280;21913;52.456;13.634;2022-08-03T21:38:27;100150.28;;;23.04;69.63
25156;BME280;21913;52.456;13.634;2022-08-03T21:43:29;100145.94;;;23.03;69.73
25156;BME280;21913;52.456;13.634;2022-08-03T21:48:35;100141.69;;;23.01;69.79
25156;BME280;21913;52.456;13.634;2022-08-03T21:53:37;100145.19;;;23.01;69.78
25156;BME280;21913;52.456;13.634;2022-08-03T21:58:40;100133.91;;;22.98;69.90
25156;BME280;21913;52.456;13.634;2022-08-03T22:03:41;100128.72;;;22.96;70.09
25156;BME280;21913;52.456;13.634;2022-08-03T22:08:43;100134.13;;;22.93;69.94
25156;BME280;21913;52.456;13.634;2022-08-03T22:13:46;100136.00;;;22.91;70.09
25156;BME280;21913;52.456;13.634;2022-08-03T22:18:47;100131.69;;;22.90;70.36
25156;BME280;21913;52.456;13.634;2022-08-03T22:23:49;100137.00;;;22.89;70.19
25156;BME280;21913;52.456;13.634;2022-08-03T22:28:52;100126.50;;;22.87;70.55
25156;BME280;21913;52.456;13.634;2022-08-03T22:33:53;100132.72;;;22.86;70.32
25156;BME280;21913;52.456;13.634;2022-08-03T22:38:55;100138.06;;;22.84;70.50
25156;BME280;21913;52.456;13.634;2022-08-03T22:43:57;100138.13;;;22.83;70.53
25156;BME280;21913;52.456;13.634;2022-08-03T22:48:58;100136.41;;;22.82;70.44
25156;BME280;21913;52.456;13.634;2022-08-03T22:54:01;100145.28;;;22.81;70.61
25156;BME280;21913;52.456;13.634;2022-08-03T22:59:03;100143.56;;;22.80;70.56
25156;BME280;21913;52.456;13.634;2022-08-03T23:04:04;100143.66;;;22.78;70.58
25156;BME280;21913;52.456;13.634;2022-08-03T23:09:07;100141.06;;;22.77;70.79
25156;BME280;21913;52.456;13.634;2022-08-03T23:14:09;100129.66;;;22.76;70.66
25156;BME280;21913;52.456;13.634;2022-08-03T23:19:12;100138.59;;;22.74;70.70
25156;BME280;21913;52.456;13.634;2022-08-03T23:24:13;100142.16;;;22.73;70.84
25156;BME280;21913;52.456;13.634;2022-08-03T23:29:15;100141.28;;;22.72;71.01
25156;BME280;21913;52.456;13.634;2022-08-03T23:34:16;100141.38;;;22.71;70.98
25156;BME280;21913;52.456;13.634;2022-08-03T23:39:18;100139.66;;;22.70;70.98
25156;BME280;21913;52.456;13.634;2022-08-03T23:44:19;100137.97;;;22.69;71.04
25156;BME280;21913;52.456;13.634;2022-08-03T23:49:21;100142.38;;;22.68;71.10
25156;BME280;21913;52.456;13.634;2022-08-03T23:54:32;100130.13;;;22.67;71.19
